sensor_id;sensor_type;location;lat;lon;timestamp;P1;durP1;ratioP1;P2;durP2;ratioP2
74707;SDS011;63360;50.104;8.074;2024-01-07T00:02:16;9.57;;;3.22;;
74707;SDS011;63360;50.104;8.074;2024-01-07T00:04:45;8.70;;;3.10;;
74707;SDS011;63360;50.104;8.074;2024-01-07T00:07:11;9.83;;;3.47;;
74707;SDS011;63360;50.104;8.074;2024-01-07T00:09:38;9.82;;;3.50;;
74707;SDS011;63360;50.104;8.074;2024-01-07T00:12:04;7.60;;;2.60;;
74707;SDS011;63360;50.104;8.074;2024-01-07T00:14:31;8.95;;;3.05;;
74707;SDS011;63360;50.104;8.074;2024-01-07T00:16:57;9.05;;;2.70;;
74707;SDS011;63360;50.104;8.074;2024-01-07T00:19:24;8.73;;;2.77;;
74707;SDS011;63360;50.104;8.074;2024-01-07T00:21:51;7.97;;;2.88;;
74707;SDS011;63360;50.104;8.074;2024-01-07T00:24:17;8.82;;;3.17;;
74707;SDS011;63360;50.104;8.074;2024-01-07T00:26:43;7.80;;;2.85;;
74707;SDS011;63360;50.104;8.074;2024-01-07T00:29:10;9.55;;;3.25;;
74707;SDS011;63360;50.104;8.074;2024-01-07T00:31:36;8.57;;;3.30;;
74707;SDS011;63360;50.104;8.074;2024-01-07T00:34:02;7.85;;;2.70;;
74707;SDS011;63360;50.104;8.074;2024-01-07T00:36:29;9.95;;;3.35;;
74707;SDS011;63360;50.104;8.074;2024-01-07T00:38:55;9.23;;;3.25;;
74707;SDS011;63360;50.104;8.074;2024-01-07T00:41:21;8.45;;;3.40;;
74707;SDS011;63360;50.104;8.074;2024-01-07T00:43:48;8.47;;;3.27;;
74707;SDS011;63360;50.104;8.074;2024-01-07T00:46:14;8.50;;;3.03;;
74707;SDS011;63360;50.104;8.074;2024-01-07T00:48:41;9.05;;;3.53;;
74707;SDS011;63360;50.104;8.074;2024-01-07T00:51:07;9.52;;;3.38;;
74707;SDS011;63360;50.104;8.074;2024-01-07T00:53:33;7.50;;;2.92;;
74707;SDS011;63360;50.104;8.074;2024-01-07T00:56:00;8.30;;;3.30;;
74707;SDS011;63360;50.104;8.074;2024-01-07T00:58:26;8.32;;;3.05;;
74707;SDS011;63360;50.104;8.074;2024-01-07T01:00:53;8.05;;;3.47;;
74707;SDS011;63360;50.104;8.074;2024-01-07T01:03:20;8.35;;;3.20;;
74707;SDS011;63360;50.104;8.074;2024-01-07T01:05:47;7.70;;;3.30;;
74707;SDS011;63360;50.104;8.074;2024-01-07T01:08:13;9.00;;;3.70;;
74707;SDS011;63360;50.104;8.074;2024-01-07T01:10:40;9.05;;;3.67;;
74707;SDS011;63360;50.104;8.074;2024-01-07T01:13:06;9.38;;;3.47;;
74707;SDS011;63360;50.104;8.074;2024-01-07T01:15:32;8.65;;;3.30;;
74707;SDS011;63360;50.104;8.074;2024-01-07T01:17:59;10.02;;;3.67;;
74707;SDS011;63360;50.104;8.074;2024-01-07T01:20:26;10.97;;;3.50;;
74707;SDS011;63360;50.104;8.074;2024-01-07T01:22:52;10.50;;;3.88;;
74707;SDS011;63360;50.104;8.074;2024-01-07T01:25:18;10.63;;;3.60;;
74707;SDS011;63360;50.104;8.074;2024-01-07T01:27:45;11.23;;;4.03;;
74707;SDS011;63360;50.104;8.074;2024-01-07T01:30:11;10.77;;;4.22;;
74707;SDS011;63360;50.104;8.074;2024-01-07T01:32:38;10.23;;;4.03;;
74707;SDS011;63360;50.104;8.074;2024-01-07T01:35:05;11.43;;;4.53;;
74707;SDS011;63360;50.104;8.074;2024-01-07T01:37:32;10.27;;;4.05;;
74707;SDS011;63360;50.104;8.074;2024-01-07T01:40:02;11.63;;;4.45;;
74707;SDS011;63360;50.104;8.074;2024-01-07T01:42:29;10.38;;;3.88;;
74707;SDS011;63360;50.104;8.074;2024-01-07T01:44:56;12.20;;;4.73;;
74707;SDS011;63360;50.104;8.074;2024-01-07T01:47:25;12.68;;;4.28;;
74707;SDS011;63360;50.104;8.074;2024-01-07T01:49:52;11.13;;;4.60;;
74707;SDS011;63360;50.104;8.074;2024-01-07T01:52:18;13.00;;;4.25;;
74707;SDS011;63360;50.104;8.074;2024-01-07T01:54:45;12.35;;;4.32;;
74707;SDS011;63360;50.104;8.074;2024-01-07T01:57:13;11.03;;;4.67;;
74707;SDS011;63360;50.104;8.074;2024-01-07T01:59:45;10.88;;;4.32;;
74707;SDS011;63360;50.104;8.074;2024-01-07T02:02:12;12.15;;;4.50;;
74707;SDS011;63360;50.104;8.074;2024-01-07T02:04:39;11.07;;;4.18;;
74707;SDS011;63360;50.104;8.074;2024-01-07T02:07:06;11.68;;;4.22;;
74707;SDS011;63360;50.104;8.074;2024-01-07T02:09:32;10.57;;;4.13;;
74707;SDS011;63360;50.104;8.074;2024-01-07T02:12:05;11.50;;;4.22;;
74707;SDS011;63360;50.104;8.074;2024-01-07T02:14:38;11.77;;;4.63;;
74707;SDS011;63360;50.104;8.074;2024-01-07T02:17:05;11.70;;;4.10;;
74707;SDS011;63360;50.104;8.074;2024-01-07T02:19:31;10.50;;;4.05;;
74707;SDS011;63360;50.104;8.074;2024-01-07T02:21:58;12.00;;;4.63;;
74707;SDS011;63360;50.104;8.074;2024-01-07T02:24:24;11.30;;;4.50;;
74707;SDS011;63360;50.104;8.074;2024-01-07T02:26:51;10.05;;;3.80;;
74707;SDS011;63360;50.104;8.074;2024-01-07T02:29:17;10.00;;;4.25;;
74707;SDS011;63360;50.104;8.074;2024-01-07T02:31:43;11.52;;;4.30;;
74707;SDS011;63360;50.104;8.074;2024-01-07T02:34:10;9.90;;;4.43;;
74707;SDS011;63360;50.104;8.074;2024-01-07T02:36:37;11.00;;;4.60;;
74707;SDS011;63360;50.104;8.074;2024-01-07T02:39:03;10.68;;;4.53;;
74707;SDS011;63360;50.104;8.074;2024-01-07T02:41:30;11.10;;;4.65;;
74707;SDS011;63360;50.104;8.074;2024-01-07T02:43:56;11.13;;;4.47;;
74707;SDS011;63360;50.104;8.074;2024-01-07T02:46:23;10.67;;;4.50;;
74707;SDS011;63360;50.104;8.074;2024-01-07T02:48:50;12.65;;;4.60;;
74707;SDS011;63360;50.104;8.074;2024-01-07T02:51:16;9.77;;;3.67;;
74707;SDS011;63360;50.104;8.074;2024-01-07T02:53:43;10.02;;;4.00;;
74707;SDS011;63360;50.104;8.074;2024-01-07T02:56:09;9.68;;;3.85;;
74707;SDS011;63360;50.104;8.074;2024-01-07T02:58:35;12.10;;;4.57;;
74707;SDS011;63360;50.104;8.074;2024-01-07T03:01:02;9.23;;;4.10;;
74707;SDS011;63360;50.104;8.074;2024-01-07T03:03:34;10.48;;;4.20;;
74707;SDS011;63360;50.104;8.074;2024-01-07T03:06:00;9.13;;;4.00;;
74707;SDS011;63360;50.104;8.074;2024-01-07T03:08:27;10.23;;;3.72;;
74707;SDS011;63360;50.104;8.074;2024-01-07T03:10:54;10.23;;;4.10;;
74707;SDS011;63360;50.104;8.074;2024-01-07T03:13:20;11.05;;;4.28;;
74707;SDS011;63360;50.104;8.074;2024-01-07T03:15:47;10.18;;;3.70;;
74707;SDS011;63360;50.104;8.074;2024-01-07T03:18:13;9.75;;;4.18;;
74707;SDS011;63360;50.104;8.074;2024-01-07T03:20:40;9.20;;;3.75;;
74707;SDS011;63360;50.104;8.074;2024-01-07T03:23:06;9.63;;;3.87;;
74707;SDS011;63360;50.104;8.074;2024-01-07T03:25:33;9.55;;;3.80;;
74707;SDS011;63360;50.104;8.074;2024-01-07T03:28:00;8.98;;;4.00;;
74707;SDS011;63360;50.104;8.074;2024-01-07T03:30:26;9.90;;;3.92;;
74707;SDS011;63360;50.104;8.074;2024-01-07T03:32:53;10.85;;;3.90;;
74707;SDS011;63360;50.104;8.074;2024-01-07T03:35:19;9.93;;;4.00;;
74707;SDS011;63360;50.104;8.074;2024-01-07T03:37:46;9.13;;;3.67;;
74707;SDS011;63360;50.104;8.074;2024-01-07T03:40:12;9.93;;;3.97;;
74707;SDS011;63360;50.104;8.074;2024-01-07T03:42:38;10.23;;;3.97;;
74707;SDS011;63360;50.104;8.074;2024-01-07T03:45:05;8.60;;;3.60;;
74707;SDS011;63360;50.104;8.074;2024-01-07T03:47:32;10.73;;;3.83;;
74707;SDS011;63360;50.104;8.074;2024-01-07T03:49:58;8.25;;;3.63;;
74707;SDS011;63360;50.104;8.074;2024-01-07T03:52:25;9.77;;;3.33;;
74707;SDS011;63360;50.104;8.074;2024-01-07T03:54:51;8.73;;;3.58;;
74707;SDS011;63360;50.104;8.074;2024-01-07T03:57:17;9.35;;;3.45;;
74707;SDS011;63360;50.104;8.074;2024-01-07T03:59:44;9.73;;;3.70;;
74707;SDS011;63360;50.104;8.074;2024-01-07T04:02:10;8.55;;;3.50;;
74707;SDS011;63360;50.104;8.074;2024-01-07T04:04:37;8.38;;;3.33;;
74707;SDS011;63360;50.104;8.074;2024-01-07T04:07:04;10.40;;;3.75;;
74707;SDS011;63360;50.104;8.074;2024-01-07T04:09:30;8.55;;;3.55;;
74707;SDS011;63360;50.104;8.074;2024-01-07T04:11:57;9.87;;;3.30;;
74707;SDS011;63360;50.104;8.074;2024-01-07T04:14:23;9.48;;;3.42;;
74707;SDS011;63360;50.104;8.074;2024-01-07T04:16:50;8.98;;;3.80;;
74707;SDS011;63360;50.104;8.074;2024-01-07T04:19:16;7.97;;;3.05;;
74707;SDS011;63360;50.104;8.074;2024-01-07T04:21:46;7.50;;;3.08;;
74707;SDS011;63360;50.104;8.074;2024-01-07T04:24:13;8.53;;;3.63;;
74707;SDS011;63360;50.104;8.074;2024-01-07T04:26:40;9.15;;;3.25;;
74707;SDS011;63360;50.104;8.074;2024-01-07T04:29:06;8.35;;;3.17;;
74707;SDS011;63360;50.104;8.074;2024-01-07T04:31:32;8.15;;;2.95;;
74707;SDS011;63360;50.104;8.074;2024-01-07T04:33:59;7.10;;;3.15;;
74707;SDS011;63360;50.104;8.074;2024-01-07T04:36:25;9.20;;;3.33;;
74707;SDS011;63360;50.104;8.074;2024-01-07T04:38:52;8.25;;;3.08;;
74707;SDS011;63360;50.104;8.074;2024-01-07T04:41:18;7.60;;;2.85;;
74707;SDS011;63360;50.104;8.074;2024-01-07T04:43:45;8.13;;;2.78;;
74707;SDS011;63360;50.104;8.074;2024-01-07T04:46:11;7.13;;;2.90;;
74707;SDS011;63360;50.104;8.074;2024-01-07T04:48:37;8.03;;;2.90;;
74707;SDS011;63360;50.104;8.074;2024-01-07T04:51:05;6.85;;;2.70;;
74707;SDS011;63360;50.104;8.074;2024-01-07T04:53:31;7.40;;;2.72;;
74707;SDS011;63360;50.104;8.074;2024-01-07T04:55:57;7.80;;;2.90;;
74707;SDS011;63360;50.104;8.074;2024-01-07T04:58:24;6.78;;;2.63;;
74707;SDS011;63360;50.104;8.074;2024-01-07T05:00:50;8.37;;;3.17;;
74707;SDS011;63360;50.104;8.074;2024-01-07T05:03:17;6.90;;;2.72;;
74707;SDS011;63360;50.104;8.074;2024-01-07T05:05:43;8.95;;;3.38;;
74707;SDS011;63360;50.104;8.074;2024-01-07T05:08:09;8.50;;;3.20;;
74707;SDS011;63360;50.104;8.074;2024-01-07T05:10:36;9.30;;;2.63;;
74707;SDS011;63360;50.104;8.074;2024-01-07T05:13:02;8.10;;;3.10;;
74707;SDS011;63360;50.104;8.074;2024-01-07T05:15:31;7.60;;;2.60;;
74707;SDS011;63360;50.104;8.074;2024-01-07T05:17:58;8.57;;;3.38;;
74707;SDS011;63360;50.104;8.074;2024-01-07T05:20:24;7.97;;;3.00;;
74707;SDS011;63360;50.104;8.074;2024-01-07T05:22:51;8.55;;;3.10;;
74707;SDS011;63360;50.104;8.074;2024-01-07T05:25:17;9.27;;;2.90;;
74707;SDS011;63360;50.104;8.074;2024-01-07T05:27:44;8.02;;;2.67;;
74707;SDS011;63360;50.104;8.074;2024-01-07T05:30:10;6.30;;;2.47;;
74707;SDS011;63360;50.104;8.074;2024-01-07T05:32:37;8.40;;;2.90;;
74707;SDS011;63360;50.104;8.074;2024-01-07T05:35:04;7.07;;;2.80;;
74707;SDS011;63360;50.104;8.074;2024-01-07T05:37:30;8.20;;;2.70;;
74707;SDS011;63360;50.104;8.074;2024-01-07T05:39:57;7.38;;;2.95;;
74707;SDS011;63360;50.104;8.074;2024-01-07T05:42:23;8.40;;;2.63;;
74707;SDS011;63360;50.104;8.074;2024-01-07T05:44:50;8.07;;;2.75;;
74707;SDS011;63360;50.104;8.074;2024-01-07T05:47:16;8.40;;;2.85;;
74707;SDS011;63360;50.104;8.074;2024-01-07T05:49:43;8.77;;;2.90;;
74707;SDS011;63360;50.104;8.074;2024-01-07T05:52:09;8.80;;;2.92;;
74707;SDS011;63360;50.104;8.074;2024-01-07T05:54:36;6.97;;;2.75;;
74707;SDS011;63360;50.104;8.074;2024-01-07T05:57:02;7.22;;;2.97;;
74707;SDS011;63360;50.104;8.074;2024-01-07T05:59:29;8.75;;;2.97;;
74707;SDS011;63360;50.104;8.074;2024-01-07T06:01:58;7.57;;;2.60;;
74707;SDS011;63360;50.104;8.074;2024-01-07T06:04:25;6.75;;;2.80;;
74707;SDS011;63360;50.104;8.074;2024-01-07T06:06:52;10.10;;;2.95;;
74707;SDS011;63360;50.104;8.074;2024-01-07T06:09:20;7.13;;;2.60;;
74707;SDS011;63360;50.104;8.074;2024-01-07T06:11:46;7.32;;;2.65;;
74707;SDS011;63360;50.104;8.074;2024-01-07T06:14:13;8.80;;;2.80;;
74707;SDS011;63360;50.104;8.074;2024-01-07T06:16:39;8.23;;;2.75;;
74707;SDS011;63360;50.104;8.074;2024-01-07T06:19:05;7.50;;;2.90;;
74707;SDS011;63360;50.104;8.074;2024-01-07T06:21:32;8.02;;;2.75;;
74707;SDS011;63360;50.104;8.074;2024-01-07T06:23:59;7.95;;;2.88;;
74707;SDS011;63360;50.104;8.074;2024-01-07T06:26:25;9.23;;;3.20;;
74707;SDS011;63360;50.104;8.074;2024-01-07T06:28:52;10.05;;;3.10;;
74707;SDS011;63360;50.104;8.074;2024-01-07T06:31:18;10.70;;;3.58;;
74707;SDS011;63360;50.104;8.074;2024-01-07T06:33:44;11.13;;;3.88;;
74707;SDS011;63360;50.104;8.074;2024-01-07T06:36:11;11.23;;;3.55;;
74707;SDS011;63360;50.104;8.074;2024-01-07T06:38:37;11.87;;;3.60;;
74707;SDS011;63360;50.104;8.074;2024-01-07T06:41:04;9.25;;;3.88;;
74707;SDS011;63360;50.104;8.074;2024-01-07T06:43:31;13.85;;;4.10;;
74707;SDS011;63360;50.104;8.074;2024-01-07T06:45:58;11.25;;;4.30;;
74707;SDS011;63360;50.104;8.074;2024-01-07T06:48:25;13.05;;;4.22;;
74707;SDS011;63360;50.104;8.074;2024-01-07T06:50:51;10.23;;;3.80;;
74707;SDS011;63360;50.104;8.074;2024-01-07T06:53:18;11.98;;;4.82;;
74707;SDS011;63360;50.104;8.074;2024-01-07T06:55:44;13.95;;;4.57;;
74707;SDS011;63360;50.104;8.074;2024-01-07T06:58:11;11.93;;;4.68;;
74707;SDS011;63360;50.104;8.074;2024-01-07T07:00:37;12.55;;;4.72;;
74707;SDS011;63360;50.104;8.074;2024-01-07T07:03:04;12.33;;;4.53;;
74707;SDS011;63360;50.104;8.074;2024-01-07T07:05:31;16.92;;;5.60;;
74707;SDS011;63360;50.104;8.074;2024-01-07T07:07:58;16.85;;;5.65;;
74707;SDS011;63360;50.104;8.074;2024-01-07T07:10:24;15.20;;;5.63;;
74707;SDS011;63360;50.104;8.074;2024-01-07T07:12:51;15.18;;;5.05;;
74707;SDS011;63360;50.104;8.074;2024-01-07T07:15:18;14.13;;;5.70;;
74707;SDS011;63360;50.104;8.074;2024-01-07T07:17:44;14.48;;;5.22;;
74707;SDS011;63360;50.104;8.074;2024-01-07T07:20:11;13.73;;;5.65;;
74707;SDS011;63360;50.104;8.074;2024-01-07T07:22:38;15.95;;;5.60;;
74707;SDS011;63360;50.104;8.074;2024-01-07T07:25:04;14.57;;;5.55;;
74707;SDS011;63360;50.104;8.074;2024-01-07T07:27:31;13.70;;;5.40;;
74707;SDS011;63360;50.104;8.074;2024-01-07T07:29:58;14.15;;;6.00;;
74707;SDS011;63360;50.104;8.074;2024-01-07T07:32:24;13.57;;;5.32;;
74707;SDS011;63360;50.104;8.074;2024-01-07T07:34:50;11.55;;;5.00;;
74707;SDS011;63360;50.104;8.074;2024-01-07T07:37:17;12.82;;;4.80;;
74707;SDS011;63360;50.104;8.074;2024-01-07T07:39:46;11.20;;;4.70;;
74707;SDS011;63360;50.104;8.074;2024-01-07T07:42:13;10.75;;;4.47;;
74707;SDS011;63360;50.104;8.074;2024-01-07T07:44:39;10.73;;;5.07;;
74707;SDS011;63360;50.104;8.074;2024-01-07T07:47:06;13.25;;;5.45;;
74707;SDS011;63360;50.104;8.074;2024-01-07T07:49:33;14.23;;;6.03;;
74707;SDS011;63360;50.104;8.074;2024-01-07T07:52:01;13.37;;;5.47;;
74707;SDS011;63360;50.104;8.074;2024-01-07T07:54:28;12.77;;;5.68;;
74707;SDS011;63360;50.104;8.074;2024-01-07T07:56:55;13.00;;;5.82;;
74707;SDS011;63360;50.104;8.074;2024-01-07T07:59:21;12.73;;;5.05;;
74707;SDS011;63360;50.104;8.074;2024-01-07T08:01:48;13.38;;;5.70;;
74707;SDS011;63360;50.104;8.074;2024-01-07T08:04:15;17.10;;;6.63;;
74707;SDS011;63360;50.104;8.074;2024-01-07T08:06:42;12.93;;;5.80;;
74707;SDS011;63360;50.104;8.074;2024-01-07T08:09:08;14.18;;;6.05;;
74707;SDS011;63360;50.104;8.074;2024-01-07T08:11:35;16.38;;;6.47;;
74707;SDS011;63360;50.104;8.074;2024-01-07T08:14:03;14.60;;;6.03;;
74707;SDS011;63360;50.104;8.074;2024-01-07T08:16:32;14.77;;;6.13;;
74707;SDS011;63360;50.104;8.074;2024-01-07T08:18:58;13.57;;;6.28;;
74707;SDS011;63360;50.104;8.074;2024-01-07T08:21:25;14.48;;;5.57;;
74707;SDS011;63360;50.104;8.074;2024-01-07T08:23:51;16.17;;;6.05;;
74707;SDS011;63360;50.104;8.074;2024-01-07T08:26:19;16.75;;;6.82;;
74707;SDS011;63360;50.104;8.074;2024-01-07T08:28:46;14.03;;;6.00;;
74707;SDS011;63360;50.104;8.074;2024-01-07T08:31:12;15.07;;;6.10;;
74707;SDS011;63360;50.104;8.074;2024-01-07T08:33:39;15.10;;;6.63;;
74707;SDS011;63360;50.104;8.074;2024-01-07T08:36:06;16.50;;;7.22;;
74707;SDS011;63360;50.104;8.074;2024-01-07T08:38:32;14.50;;;5.80;;
74707;SDS011;63360;50.104;8.074;2024-01-07T08:40:59;13.80;;;5.87;;
74707;SDS011;63360;50.104;8.074;2024-01-07T08:43:25;13.85;;;6.25;;
74707;SDS011;63360;50.104;8.074;2024-01-07T08:45:52;15.95;;;6.40;;
74707;SDS011;63360;50.104;8.074;2024-01-07T08:48:18;12.77;;;6.00;;
74707;SDS011;63360;50.104;8.074;2024-01-07T08:50:45;15.70;;;6.30;;
74707;SDS011;63360;50.104;8.074;2024-01-07T08:53:12;16.67;;;6.53;;
74707;SDS011;63360;50.104;8.074;2024-01-07T08:55:38;15.07;;;6.30;;
74707;SDS011;63360;50.104;8.074;2024-01-07T08:58:05;17.60;;;6.47;;
74707;SDS011;63360;50.104;8.074;2024-01-07T09:00:33;14.95;;;6.45;;
74707;SDS011;63360;50.104;8.074;2024-01-07T09:02:59;15.70;;;6.55;;
74707;SDS011;63360;50.104;8.074;2024-01-07T09:05:26;16.43;;;6.20;;
74707;SDS011;63360;50.104;8.074;2024-01-07T09:07:52;16.15;;;6.38;;
74707;SDS011;63360;50.104;8.074;2024-01-07T09:10:18;16.65;;;6.75;;
74707;SDS011;63360;50.104;8.074;2024-01-07T09:12:46;15.57;;;6.22;;
74707;SDS011;63360;50.104;8.074;2024-01-07T09:15:13;13.57;;;5.80;;
74707;SDS011;63360;50.104;8.074;2024-01-07T09:17:39;12.50;;;5.40;;
74707;SDS011;63360;50.104;8.074;2024-01-07T09:20:09;13.43;;;5.30;;
74707;SDS011;63360;50.104;8.074;2024-01-07T09:22:36;16.45;;;6.30;;
74707;SDS011;63360;50.104;8.074;2024-01-07T09:25:03;15.35;;;6.10;;
74707;SDS011;63360;50.104;8.074;2024-01-07T09:27:30;15.70;;;6.22;;
74707;SDS011;63360;50.104;8.074;2024-01-07T09:29:57;13.63;;;5.63;;
74707;SDS011;63360;50.104;8.074;2024-01-07T09:32:24;14.40;;;6.05;;
74707;SDS011;63360;50.104;8.074;2024-01-07T09:34:50;15.85;;;6.10;;
74707;SDS011;63360;50.104;8.074;2024-01-07T09:37:18;12.32;;;5.45;;
74707;SDS011;63360;50.104;8.074;2024-01-07T09:39:44;16.38;;;6.10;;
74707;SDS011;63360;50.104;8.074;2024-01-07T09:42:15;15.57;;;5.70;;
74707;SDS011;63360;50.104;8.074;2024-01-07T09:44:43;11.90;;;5.13;;
74707;SDS011;63360;50.104;8.074;2024-01-07T09:47:10;13.20;;;5.53;;
74707;SDS011;63360;50.104;8.074;2024-01-07T09:49:38;15.75;;;6.32;;
74707;SDS011;63360;50.104;8.074;2024-01-07T09:52:05;21.17;;;8.18;;
74707;SDS011;63360;50.104;8.074;2024-01-07T09:54:35;20.07;;;7.73;;
74707;SDS011;63360;50.104;8.074;2024-01-07T09:57:05;25.00;;;8.95;;
74707;SDS011;63360;50.104;8.074;2024-01-07T09:59:35;21.50;;;8.52;;
74707;SDS011;63360;50.104;8.074;2024-01-07T10:02:03;24.38;;;8.65;;
74707;SDS011;63360;50.104;8.074;2024-01-07T10:04:30;22.17;;;7.97;;
74707;SDS011;63360;50.104;8.074;2024-01-07T10:06:57;19.77;;;7.47;;
74707;SDS011;63360;50.104;8.074;2024-01-07T10:09:24;16.48;;;6.20;;
74707;SDS011;63360;50.104;8.074;2024-01-07T10:11:54;18.05;;;6.28;;
74707;SDS011;63360;50.104;8.074;2024-01-07T10:14:20;15.27;;;6.28;;
74707;SDS011;63360;50.104;8.074;2024-01-07T10:16:50;16.63;;;6.03;;
74707;SDS011;63360;50.104;8.074;2024-01-07T10:19:23;15.53;;;6.37;;
74707;SDS011;63360;50.104;8.074;2024-01-07T10:22:03;16.55;;;6.00;;
74707;SDS011;63360;50.104;8.074;2024-01-07T10:24:37;16.13;;;6.20;;
74707;SDS011;63360;50.104;8.074;2024-01-07T10:27:05;13.65;;;5.43;;
74707;SDS011;63360;50.104;8.074;2024-01-07T10:29:32;16.33;;;6.18;;
74707;SDS011;63360;50.104;8.074;2024-01-07T10:31:59;16.67;;;6.53;;
74707;SDS011;63360;50.104;8.074;2024-01-07T10:34:31;15.73;;;7.15;;
74707;SDS011;63360;50.104;8.074;2024-01-07T10:37:00;16.92;;;7.10;;
74707;SDS011;63360;50.104;8.074;2024-01-07T10:39:27;15.93;;;6.72;;
74707;SDS011;63360;50.104;8.074;2024-01-07T10:41:57;13.93;;;5.85;;
74707;SDS011;63360;50.104;8.074;2024-01-07T10:44:27;13.80;;;5.67;;
74707;SDS011;63360;50.104;8.074;2024-01-07T10:46:56;15.52;;;6.03;;
74707;SDS011;63360;50.104;8.074;2024-01-07T10:49:24;15.40;;;6.20;;
74707;SDS011;63360;50.104;8.074;2024-01-07T10:54:32;13.65;;;6.10;;
74707;SDS011;63360;50.104;8.074;2024-01-07T10:57:22;13.70;;;5.83;;
74707;SDS011;63360;50.104;8.074;2024-01-07T11:00:06;16.25;;;6.32;;
74707;SDS011;63360;50.104;8.074;2024-01-07T11:02:35;14.02;;;6.05;;
74707;SDS011;63360;50.104;8.074;2024-01-07T11:06:13;16.70;;;6.05;;
74707;SDS011;63360;50.104;8.074;2024-01-07T11:08:34;15.63;;;5.63;;
74707;SDS011;63360;50.104;8.074;2024-01-07T11:11:18;13.93;;;5.70;;
74707;SDS011;63360;50.104;8.074;2024-01-07T11:13:50;13.75;;;6.22;;
74707;SDS011;63360;50.104;8.074;2024-01-07T11:19:19;14.88;;;6.30;;
74707;SDS011;63360;50.104;8.074;2024-01-07T11:21:46;12.93;;;5.78;;
74707;SDS011;63360;50.104;8.074;2024-01-07T11:24:46;12.43;;;5.37;;
74707;SDS011;63360;50.104;8.074;2024-01-07T11:27:08;13.57;;;5.85;;
74707;SDS011;63360;50.104;8.074;2024-01-07T11:29:35;13.45;;;5.00;;
74707;SDS011;63360;50.104;8.074;2024-01-07T11:32:01;15.00;;;6.25;;
74707;SDS011;63360;50.104;8.074;2024-01-07T11:34:41;11.70;;;5.05;;
74707;SDS011;63360;50.104;8.074;2024-01-07T11:37:10;12.40;;;5.60;;
74707;SDS011;63360;50.104;8.074;2024-01-07T11:39:44;13.55;;;5.72;;
74707;SDS011;63360;50.104;8.074;2024-01-07T11:42:12;13.05;;;5.80;;
74707;SDS011;63360;50.104;8.074;2024-01-07T11:45:12;13.23;;;5.85;;
74707;SDS011;63360;50.104;8.074;2024-01-07T11:47:31;11.30;;;5.20;;
74707;SDS011;63360;50.104;8.074;2024-01-07T11:49:58;12.60;;;5.40;;
74707;SDS011;63360;50.104;8.074;2024-01-07T11:52:26;12.25;;;5.65;;
74707;SDS011;63360;50.104;8.074;2024-01-07T11:54:52;13.95;;;6.38;;
74707;SDS011;63360;50.104;8.074;2024-01-07T11:57:18;13.93;;;5.80;;
74707;SDS011;63360;50.104;8.074;2024-01-07T11:59:45;14.13;;;5.88;;
74707;SDS011;63360;50.104;8.074;2024-01-07T12:02:12;12.50;;;5.07;;
74707;SDS011;63360;50.104;8.074;2024-01-07T12:04:38;12.38;;;4.93;;
74707;SDS011;63360;50.104;8.074;2024-01-07T12:07:05;12.77;;;5.28;;
74707;SDS011;63360;50.104;8.074;2024-01-07T12:09:31;12.05;;;5.40;;
74707;SDS011;63360;50.104;8.074;2024-01-07T12:11:58;12.40;;;5.35;;
74707;SDS011;63360;50.104;8.074;2024-01-07T12:14:25;11.27;;;5.10;;
74707;SDS011;63360;50.104;8.074;2024-01-07T12:16:52;12.88;;;5.57;;
74707;SDS011;63360;50.104;8.074;2024-01-07T12:19:18;13.13;;;5.68;;
74707;SDS011;63360;50.104;8.074;2024-01-07T12:21:46;11.80;;;5.35;;
74707;SDS011;63360;50.104;8.074;2024-01-07T12:24:15;11.40;;;5.20;;
74707;SDS011;63360;50.104;8.074;2024-01-07T12:26:41;12.60;;;5.50;;
74707;SDS011;63360;50.104;8.074;2024-01-07T12:29:08;12.10;;;5.10;;
74707;SDS011;63360;50.104;8.074;2024-01-07T12:31:38;13.77;;;5.20;;
74707;SDS011;63360;50.104;8.074;2024-01-07T12:34:05;11.93;;;4.78;;
74707;SDS011;63360;50.104;8.074;2024-01-07T12:36:33;13.77;;;5.40;;
74707;SDS011;63360;50.104;8.074;2024-01-07T12:39:00;13.70;;;5.47;;
74707;SDS011;63360;50.104;8.074;2024-01-07T12:41:26;14.57;;;5.43;;
74707;SDS011;63360;50.104;8.074;2024-01-07T12:43:53;12.65;;;5.85;;
74707;SDS011;63360;50.104;8.074;2024-01-07T12:46:19;14.35;;;5.60;;
74707;SDS011;63360;50.104;8.074;2024-01-07T12:48:45;12.82;;;5.20;;
74707;SDS011;63360;50.104;8.074;2024-01-07T12:51:12;10.93;;;5.03;;
74707;SDS011;63360;50.104;8.074;2024-01-07T12:53:39;11.60;;;4.90;;
74707;SDS011;63360;50.104;8.074;2024-01-07T12:56:05;15.32;;;6.07;;
74707;SDS011;63360;50.104;8.074;2024-01-07T12:58:32;13.23;;;5.35;;
74707;SDS011;63360;50.104;8.074;2024-01-07T13:00:59;12.77;;;5.47;;
74707;SDS011;63360;50.104;8.074;2024-01-07T13:03:25;13.10;;;5.47;;
74707;SDS011;63360;50.104;8.074;2024-01-07T13:05:52;12.65;;;5.07;;
74707;SDS011;63360;50.104;8.074;2024-01-07T13:08:19;13.45;;;4.80;;
74707;SDS011;63360;50.104;8.074;2024-01-07T13:10:48;13.82;;;5.43;;
74707;SDS011;63360;50.104;8.074;2024-01-07T13:13:14;12.15;;;5.00;;
74707;SDS011;63360;50.104;8.074;2024-01-07T13:15:41;14.33;;;5.07;;
74707;SDS011;63360;50.104;8.074;2024-01-07T13:18:09;11.93;;;4.47;;
74707;SDS011;63360;50.104;8.074;2024-01-07T13:20:38;13.48;;;4.63;;
74707;SDS011;63360;50.104;8.074;2024-01-07T13:23:05;12.95;;;5.00;;
74707;SDS011;63360;50.104;8.074;2024-01-07T13:25:32;13.18;;;4.88;;
74707;SDS011;63360;50.104;8.074;2024-01-07T13:27:58;12.60;;;4.93;;
74707;SDS011;63360;50.104;8.074;2024-01-07T13:30:25;12.05;;;4.95;;
74707;SDS011;63360;50.104;8.074;2024-01-07T13:32:52;11.32;;;4.53;;
74707;SDS011;63360;50.104;8.074;2024-01-07T13:35:23;11.93;;;4.63;;
74707;SDS011;63360;50.104;8.074;2024-01-07T13:37:49;12.90;;;4.82;;
74707;SDS011;63360;50.104;8.074;2024-01-07T13:40:17;11.80;;;4.37;;
74707;SDS011;63360;50.104;8.074;2024-01-07T13:42:45;9.68;;;4.32;;
74707;SDS011;63360;50.104;8.074;2024-01-07T13:45:12;10.57;;;4.55;;
74707;SDS011;63360;50.104;8.074;2024-01-07T13:47:39;10.93;;;4.50;;
74707;SDS011;63360;50.104;8.074;2024-01-07T13:50:06;13.65;;;4.80;;
74707;SDS011;63360;50.104;8.074;2024-01-07T13:52:36;12.70;;;4.97;;
74707;SDS011;63360;50.104;8.074;2024-01-07T13:55:02;11.30;;;4.30;;
74707;SDS011;63360;50.104;8.074;2024-01-07T13:57:29;10.65;;;4.28;;
74707;SDS011;63360;50.104;8.074;2024-01-07T13:59:57;13.27;;;4.97;;
74707;SDS011;63360;50.104;8.074;2024-01-07T14:02:23;10.68;;;4.78;;
74707;SDS011;63360;50.104;8.074;2024-01-07T14:04:49;10.80;;;4.23;;
74707;SDS011;63360;50.104;8.074;2024-01-07T14:07:17;11.02;;;3.88;;
74707;SDS011;63360;50.104;8.074;2024-01-07T14:09:44;9.02;;;3.53;;
74707;SDS011;63360;50.104;8.074;2024-01-07T14:12:10;12.25;;;4.00;;
74707;SDS011;63360;50.104;8.074;2024-01-07T14:14:36;9.02;;;3.67;;
74707;SDS011;63360;50.104;8.074;2024-01-07T14:17:03;10.60;;;3.63;;
74707;SDS011;63360;50.104;8.074;2024-01-07T14:19:29;11.07;;;3.55;;
74707;SDS011;63360;50.104;8.074;2024-01-07T14:21:56;11.30;;;3.58;;
74707;SDS011;63360;50.104;8.074;2024-01-07T14:24:22;9.43;;;3.45;;
74707;SDS011;63360;50.104;8.074;2024-01-07T14:26:49;8.45;;;3.28;;
74707;SDS011;63360;50.104;8.074;2024-01-07T14:29:15;8.67;;;3.70;;
74707;SDS011;63360;50.104;8.074;2024-01-07T14:31:43;10.13;;;3.70;;
74707;SDS011;63360;50.104;8.074;2024-01-07T14:34:12;9.55;;;4.00;;
74707;SDS011;63360;50.104;8.074;2024-01-07T14:36:41;8.65;;;3.75;;
74707;SDS011;63360;50.104;8.074;2024-01-07T14:39:11;9.32;;;3.28;;
74707;SDS011;63360;50.104;8.074;2024-01-07T14:41:39;9.37;;;3.23;;
74707;SDS011;63360;50.104;8.074;2024-01-07T14:44:06;8.70;;;3.20;;
74707;SDS011;63360;50.104;8.074;2024-01-07T14:46:37;8.05;;;3.40;;